Terminal Aerodrome Forecast
Issued by NWS Tuscon, AZ

Home | Current Version | Previous Version | Text Only | Print | Product List | Glossary On
Versions: 1 2 3 4 5 6 7 8 9 10 11 12 13 14 15
596
FTUS45 KTWC 261136
TAFTUS
TAF
KTUS 261136Z 2612/2712 16006KT P6SM FEW100 SCT150
     FM261800 31008KT P6SM FEW090 SCT150
     FM262300 33010KT P6SM VCSH SCT080 BKN120
     FM270200 18009KT P6SM SCT090 BKN120=

USA.gov is the U.S. government's official web portal to all federal, state and local government web resources and services.